Time;durP1;ratioP1;P1;durP2;ratioP2;P2;SDS_P1;SDS_P2;PMS_P1;PMS_P2;Temp;Humidity;BMP_temperature;BMP_pressure;BME280_temperature;BME280_humidity;BME280_pressure;Samples;Min_cycle;Max_cycle;Signal;HPM_P1;HPM_P2
2023/10/22 00:04:10;;;;;;;;;;;12.20;99.90;;;;;;12567091;28;19991;-36
2023/10/22 00:10:12;;;;;;;;;;;12.10;99.90;;;;;;12567554;28;20359;-35
2023/10/22 00:16:14;;;;;;;;;;;12.10;99.90;;;;;;12592759;28;19936;-36
2023/10/22 00:22:16;;;;;;;;;;;12.10;99.90;;;;;;12605725;28;19928;-35
2023/10/22 00:28:18;;;;;;;;;;;12.10;99.90;;;;;;12608469;28;19931;-36
2023/10/22 00:34:21;;;;;;;;;;;12.20;99.90;;;;;;12586291;28;19928;-36
2023/10/22 00:40:23;;;;;;;;;;;12.10;99.90;;;;;;12597822;28;19955;-35
2023/10/22 00:46:25;;;;;;;;;;;12.10;99.90;;;;;;12609129;28;20379;-35
2023/10/22 00:52:27;;;;;;;;;;;12.00;99.90;;;;;;12624611;28;20042;-35
2023/10/22 00:58:29;;;;;;;;;;;12.10;99.90;;;;;;12622917;28;19954;-36
2023/10/22 01:04:31;;;;;;;;;;;12.10;99.90;;;;;;12607572;28;20026;-35
2023/10/22 01:10:33;;;;;;;;;;;12.10;99.90;;;;;;12614482;28;20312;-35
2023/10/22 01:16:34;;;;;;;;;;;12.10;99.90;;;;;;12620450;28;19934;-35
2023/10/22 01:22:36;;;;;;;;;;;12.20;99.90;;;;;;12616194;28;19935;-35
2023/10/22 01:28:38;;;;;;;;;;;12.10;99.90;;;;;;12605777;28;20293;-36
2023/10/22 01:34:40;;;;;;;;;;;12.10;99.90;;;;;;12618749;28;19944;-35
2023/10/22 01:40:41;;;;;;;;;;;12.10;99.90;;;;;;12630266;28;19931;-35
2023/10/22 01:46:44;;;;;;;;;;;12.20;99.90;;;;;;12623849;28;20353;-35
2023/10/22 01:52:46;;;;;;;;;;;11.90;99.90;;;;;;12600919;28;19928;-36
2023/10/22 01:58:48;;;;;;;;;;;11.70;99.90;;;;;;12619841;28;19942;-35
2023/10/22 02:04:49;;;;;;;;;;;11.50;99.90;;;;;;12602437;28;19950;-34
2023/10/22 02:10:51;;;;;;;;;;;11.40;99.90;;;;;;12622594;28;20288;-35
2023/10/22 02:16:53;;;;;;;;;;;11.50;99.90;;;;;;12621380;28;19928;-35
2023/10/22 02:22:57;;;;;;;;;;;11.30;99.90;;;;;;12608337;28;20391;-35
2023/10/22 02:28:58;;;;;;;;;;;11.40;99.90;;;;;;12628546;28;20268;-35
2023/10/22 02:35:00;;;;;;;;;;;11.30;99.90;;;;;;12592341;28;19928;-34
2023/10/22 02:41:02;;;;;;;;;;;11.40;99.90;;;;;;12615013;28;20477;-35
2023/10/22 02:47:04;;;;;;;;;;;11.40;99.90;;;;;;12603709;28;19932;-35
2023/10/22 02:53:06;;;;;;;;;;;11.40;99.90;;;;;;12619752;28;19932;-35
2023/10/22 02:59:08;;;;;;;;;;;11.40;99.90;;;;;;12623800;28;19931;-35
2023/10/22 03:05:10;;;;;;;;;;;11.40;99.90;;;;;;12610618;28;19928;-35
2023/10/22 03:11:18;;;;;;;;;;;11.40;99.90;;;;;;12610743;28;19927;-34
2023/10/22 03:17:20;;;;;;;;;;;11.30;99.90;;;;;;12619683;28;19937;-35
2023/10/22 03:23:22;;;;;;;;;;;11.30;99.90;;;;;;12604790;28;20011;-36
2023/10/22 03:29:25;;;;;;;;;;;11.30;99.90;;;;;;12619712;28;19928;-35
2023/10/22 03:35:27;;;;;;;;;;;11.20;99.90;;;;;;12611069;28;19928;-35
2023/10/22 03:41:28;;;;;;;;;;;11.20;99.90;;;;;;12613129;28;19928;-35
2023/10/22 03:47:30;;;;;;;;;;;11.20;99.90;;;;;;12607987;28;20291;-35
2023/10/22 03:53:32;;;;;;;;;;;11.20;99.90;;;;;;12617745;28;20423;-35
2023/10/22 03:59:34;;;;;;;;;;;11.20;99.90;;;;;;12620497;28;20026;-35
2023/10/22 04:05:35;;;;;;;;;;;11.20;99.90;;;;;;12623485;28;19939;-35
2023/10/22 04:11:37;;;;;;;;;;;11.20;99.90;;;;;;12600366;28;19928;-35
2023/10/22 04:17:39;;;;;;;;;;;11.20;99.90;;;;;;12623773;28;20341;-35
2023/10/22 04:23:41;;;;;;;;;;;11.10;99.90;;;;;;12615116;28;20062;-35
2023/10/22 04:29:46;;;;;;;;;;;11.20;99.90;;;;;;12624314;28;19928;-35
2023/10/22 04:35:47;;;;;;;;;;;11.10;99.90;;;;;;12608074;28;20299;-35
2023/10/22 04:41:49;;;;;;;;;;;11.10;99.90;;;;;;12614207;28;21078;-35
2023/10/22 04:47:51;;;;;;;;;;;11.10;99.90;;;;;;12620396;28;20451;-35
2023/10/22 04:53:53;;;;;;;;;;;11.10;99.90;;;;;;12614510;28;19994;-35
2023/10/22 04:59:56;;;;;;;;;;;11.20;99.90;;;;;;12620707;28;19932;-35
2023/10/22 05:06:02;;;;;;;;;;;11.30;99.90;;;;;;12613642;28;19928;-34
2023/10/22 05:12:04;;;;;;;;;;;11.30;99.90;;;;;;12614462;28;20396;-34
2023/10/22 05:18:07;;;;;;;;;;;11.30;99.90;;;;;;12616714;28;19932;-34
2023/10/22 05:24:09;;;;;;;;;;;11.30;99.90;;;;;;12617576;28;20480;-34
2023/10/22 05:30:12;;;;;;;;;;;11.30;99.90;;;;;;12610230;28;20365;-34
2023/10/22 05:36:15;;;;;;;;;;;11.40;99.90;;;;;;12606752;28;20383;-34
2023/10/22 05:42:17;;;;;;;;;;;11.30;99.90;;;;;;12609988;28;19933;-34
2023/10/22 05:48:19;;;;;;;;;;;11.30;99.90;;;;;;12611790;28;19932;-35
2023/10/22 05:54:21;;;;;;;;;;;11.40;99.90;;;;;;12606606;28;19923;-36
2023/10/22 06:00:23;;;;;;;;;;;11.30;99.90;;;;;;12604016;28;20339;-35
2023/10/22 06:06:25;;;;;;;;;;;11.30;99.90;;;;;;12593529;28;20956;-35
2023/10/22 06:12:26;;;;;;;;;;;11.50;99.90;;;;;;12598901;28;20786;-35
2023/10/22 06:18:28;;;;;;;;;;;11.40;99.90;;;;;;12595152;28;19928;-35
2023/10/22 06:24:30;;;;;;;;;;;11.40;99.90;;;;;;12620555;28;20803;-35
2023/10/22 06:30:32;;;;;;;;;;;11.40;99.90;;;;;;12598396;28;20292;-35
2023/10/22 06:36:34;;;;;;;;;;;11.40;99.90;;;;;;12599921;28;19924;-35
2023/10/22 06:42:35;;;;;;;;;;;11.50;99.90;;;;;;12617164;28;20394;-35
2023/10/22 06:48:37;;;;;;;;;;;11.40;99.90;;;;;;12607568;28;20366;-35
2023/10/22 06:54:39;;;;;;;;;;;11.40;99.90;;;;;;12620321;28;19927;-35
2023/10/22 07:00:41;;;;;;;;;;;11.50;99.90;;;;;;12613311;28;19986;-35
2023/10/22 07:06:44;;;;;;;;;;;11.70;99.90;;;;;;12614057;28;19928;-35
2023/10/22 07:12:46;;;;;;;;;;;11.80;99.90;;;;;;12609279;28;19980;-35
2023/10/22 07:18:48;;;;;;;;;;;11.80;99.90;;;;;;12592003;28;19934;-35
2023/10/22 07:24:50;;;;;;;;;;;11.90;99.90;;;;;;12614089;28;19935;-36
2023/10/22 07:30:52;;;;;;;;;;;12.00;99.90;;;;;;12606368;28;19941;-36
2023/10/22 07:36:54;;;;;;;;;;;12.10;99.90;;;;;;12589431;28;20766;-35
2023/10/22 07:42:55;;;;;;;;;;;12.50;99.90;;;;;;12611895;28;20397;-36
2023/10/22 07:48:57;;;;;;;;;;;13.00;99.90;;;;;;12622349;28;19927;-35
2023/10/22 07:54:59;;;;;;;;;;;13.20;99.90;;;;;;12612582;28;19928;-35
2023/10/22 08:01:01;;;;;;;;;;;13.10;99.90;;;;;;12613360;28;20018;-35
2023/10/22 08:07:04;;;;;;;;;;;13.00;99.90;;;;;;12617722;28;19924;-35
2023/10/22 08:13:05;;;;;;;;;;;13.10;99.90;;;;;;12615164;28;20041;-35
2023/10/22 08:19:07;;;;;;;;;;;13.00;99.90;;;;;;12596523;28;19927;-35
2023/10/22 08:25:09;;;;;;;;;;;13.00;99.90;;;;;;12608036;28;20039;-35
2023/10/22 08:31:11;;;;;;;;;;;13.00;99.90;;;;;;12621180;28;19971;-35
2023/10/22 08:37:12;;;;;;;;;;;12.90;99.90;;;;;;12588741;28;20349;-35
2023/10/22 08:43:16;;;;;;;;;;;13.00;99.90;;;;;;12602237;28;19924;-35
2023/10/22 08:49:18;;;;;;;;;;;13.00;99.90;;;;;;12618233;28;19963;-36
2023/10/22 08:55:21;;;;;;;;;;;13.00;99.90;;;;;;12619568;28;19959;-35
2023/10/22 09:01:25;;;;;;;;;;;12.90;99.90;;;;;;12596653;28;20373;-36
2023/10/22 09:07:59;;;;;;;;;;;13.00;99.90;;;;;;12611805;28;19931;-35
2023/10/22 09:14:19;;;;;;;;;;;12.90;99.90;;;;;;12561633;28;20328;-36
2023/10/22 09:20:21;;;;;;;;;;;12.90;99.90;;;;;;12600879;28;20045;-35
2023/10/22 09:26:25;;;;;;;;;;;13.00;99.90;;;;;;12617745;28;19932;-34
2023/10/22 09:32:27;;;;;;;;;;;13.00;99.90;;;;;;12598230;28;20616;-36
2023/10/22 09:38:50;;;;;;;;;;;13.30;99.90;;;;;;12609490;28;20337;-35
2023/10/22 09:44:52;;;;;;;;;;;13.80;99.90;;;;;;12606495;28;20284;-36
2023/10/22 09:50:54;;;;;;;;;;;14.10;99.90;;;;;;12610256;28;19935;-36
2023/10/22 09:56:57;;;;;;;;;;;14.00;99.90;;;;;;12615385;28;19932;-35
2023/10/22 10:03:01;;;;;;;;;;;13.70;99.90;;;;;;12602189;28;19954;-35
2023/10/22 10:09:03;;;;;;;;;;;13.70;99.90;;;;;;12610187;28;20437;-35
2023/10/22 10:15:06;;;;;;;;;;;13.50;99.90;;;;;;12587888;28;19928;-35
2023/10/22 10:21:27;;;;;;;;;;;13.50;99.90;;;;;;12545682;28;20147;-35
2023/10/22 10:27:29;;;;;;;;;;;13.50;99.90;;;;;;12529026;28;20026;-35
2023/10/22 10:33:49;;;;;;;;;;;13.50;99.90;;;;;;12557090;28;19935;-35
2023/10/22 10:39:54;;;;;;;;;;;13.50;99.90;;;;;;12544769;28;19993;-36
2023/10/22 10:46:34;;;;;;;;;;;13.70;99.90;;;;;;12547559;28;19982;-35
2023/10/22 10:52:42;;;;;;;;;;;13.60;99.90;;;;;;12431503;28;19930;-35
2023/10/22 10:58:44;;;;;;;;;;;13.50;99.90;;;;;;12552605;28;19996;-36
2023/10/22 11:04:46;;;;;;;;;;;13.60;99.90;;;;;;12537280;28;20343;-35
2023/10/22 11:10:48;;;;;;;;;;;13.60;99.90;;;;;;12557443;28;19939;-35
2023/10/22 11:16:54;;;;;;;;;;;13.70;99.90;;;;;;12598065;28;20489;-35
2023/10/22 11:22:57;;;;;;;;;;;13.80;99.90;;;;;;12616042;28;19928;-36
2023/10/22 11:28:58;;;;;;;;;;;13.90;99.90;;;;;;12610330;28;20019;-36
2023/10/22 11:35:01;;;;;;;;;;;13.90;99.90;;;;;;12576130;28;19928;-36
2023/10/22 11:41:03;;;;;;;;;;;13.80;99.90;;;;;;12611379;28;19964;-35
2023/10/22 11:47:21;;;;;;;;;;;13.90;99.90;;;;;;12590670;28;19964;-35
2023/10/22 11:53:26;;;;;;;;;;;13.90;99.90;;;;;;12614060;28;20039;-35
2023/10/22 11:59:29;;;;;;;;;;;13.90;99.90;;;;;;12611039;28;20303;-35
2023/10/22 12:05:31;;;;;;;;;;;14.00;99.90;;;;;;12611424;28;19932;-36
2023/10/22 12:11:33;;;;;;;;;;;13.90;99.90;;;;;;12615150;28;19932;-36
2023/10/22 12:17:35;;;;;;;;;;;13.90;99.90;;;;;;12593138;28;19934;-35
2023/10/22 12:23:37;;;;;;;;;;;13.90;99.90;;;;;;12605350;28;19928;-36
2023/10/22 12:29:51;;;;;;;;;;;14.00;99.90;;;;;;12604730;28;19966;-35
2023/10/22 12:35:53;;;;;;;;;;;14.00;99.90;;;;;;12596845;28;19932;-36
2023/10/22 12:41:55;;;;;;;;;;;14.00;99.90;;;;;;12615141;28;20291;-36
2023/10/22 12:47:56;;;;;;;;;;;14.00;99.90;;;;;;12583122;28;19924;-36
2023/10/22 12:53:59;;;;;;;;;;;14.10;99.90;;;;;;12609642;28;20023;-36
2023/10/22 13:00:05;;;;;;;;;;;14.20;99.90;;;;;;12610908;28;20405;-36
2023/10/22 13:06:08;;;;;;;;;;;14.30;99.90;;;;;;12599842;28;19955;-36
2023/10/22 13:12:10;;;;;;;;;;;14.20;99.90;;;;;;12610565;28;20011;-36
2023/10/22 13:18:11;;;;;;;;;;;14.30;99.90;;;;;;12614111;28;20047;-36
2023/10/22 13:24:13;;;;;;;;;;;14.30;99.90;;;;;;12612089;28;20465;-35
2023/10/22 13:30:15;;;;;;;;;;;14.20;99.90;;;;;;12624796;28;19960;-36
2023/10/22 13:36:17;;;;;;;;;;;14.30;99.90;;;;;;12612955;28;19944;-36
2023/10/22 13:42:19;;;;;;;;;;;14.20;99.90;;;;;;12616536;28;20011;-36
2023/10/22 13:48:21;;;;;;;;;;;14.40;99.90;;;;;;12625446;28;19971;-36
2023/10/22 13:54:23;;;;;;;;;;;14.20;99.90;;;;;;12619637;28;20408;-36
2023/10/22 14:00:25;;;;;;;;;;;14.20;99.90;;;;;;12623075;28;20376;-36
2023/10/22 14:06:27;;;;;;;;;;;14.20;99.90;;;;;;12614614;28;19932;-36
2023/10/22 14:12:29;;;;;;;;;;;14.20;99.90;;;;;;12621595;28;19934;-35
2023/10/22 14:18:31;;;;;;;;;;;14.30;99.90;;;;;;12618497;28;19953;-35
2023/10/22 14:24:33;;;;;;;;;;;14.30;99.90;;;;;;12614689;28;19963;-36
2023/10/22 14:30:40;;;;;;;;;;;14.20;99.90;;;;;;12621647;28;20395;-36
2023/10/22 14:36:42;;;;;;;;;;;14.20;99.90;;;;;;12621697;28;20373;-36
2023/10/22 14:42:43;;;;;;;;;;;14.20;99.90;;;;;;12622086;28;20470;-36
2023/10/22 14:48:45;;;;;;;;;;;14.10;99.90;;;;;;12601333;28;19936;-35
2023/10/22 14:54:47;;;;;;;;;;;13.90;99.90;;;;;;12627112;28;19928;-36
2023/10/22 15:00:49;;;;;;;;;;;13.80;99.90;;;;;;12618493;28;19932;-35
2023/10/22 15:06:50;;;;;;;;;;;13.60;99.90;;;;;;12608408;28;19932;-35
2023/10/22 15:12:52;;;;;;;;;;;13.50;99.90;;;;;;12613944;28;20514;-35
2023/10/22 15:18:54;;;;;;;;;;;13.40;99.90;;;;;;12550322;28;20346;-35
2023/10/22 15:24:56;;;;;;;;;;;13.50;99.90;;;;;;12551378;28;20816;-36
2023/10/22 15:30:58;;;;;;;;;;;13.40;99.90;;;;;;12546914;28;19994;-36
2023/10/22 15:36:59;;;;;;;;;;;13.40;99.90;;;;;;12523612;28;19986;-36
2023/10/22 15:43:02;;;;;;;;;;;13.40;99.90;;;;;;12544849;28;20334;-37
2023/10/22 15:49:04;;;;;;;;;;;13.40;99.90;;;;;;12541479;28;19932;-37
2023/10/22 15:55:06;;;;;;;;;;;13.40;99.90;;;;;;12551935;28;20031;-36
2023/10/22 16:01:10;;;;;;;;;;;13.30;99.90;;;;;;12552792;28;19929;-36
2023/10/22 16:07:12;;;;;;;;;;;13.40;99.90;;;;;;12528693;28;20828;-37
2023/10/22 16:13:13;;;;;;;;;;;13.30;99.90;;;;;;12550402;28;20005;-36
2023/10/22 16:19:15;;;;;;;;;;;13.20;99.90;;;;;;12611332;28;20010;-38
2023/10/22 16:25:17;;;;;;;;;;;13.10;99.90;;;;;;12608545;28;20461;-37
2023/10/22 16:31:18;;;;;;;;;;;13.20;99.90;;;;;;12607271;28;19979;-36
2023/10/22 16:37:20;;;;;;;;;;;13.00;99.90;;;;;;12602113;28;20406;-36
2023/10/22 16:43:22;;;;;;;;;;;13.10;99.90;;;;;;12616372;28;19928;-36
2023/10/22 16:49:25;;;;;;;;;;;13.10;99.90;;;;;;12593784;28;19932;-36
2023/10/22 16:55:27;;;;;;;;;;;13.00;99.90;;;;;;12606519;28;19977;-37
2023/10/22 17:01:29;;;;;;;;;;;13.00;99.90;;;;;;12614506;28;19927;-36
2023/10/22 17:07:30;;;;;;;;;;;12.70;99.90;;;;;;12604812;28;19928;-37
2023/10/22 17:13:35;;;;;;;;;;;12.30;99.90;;;;;;12617144;28;20417;-35
2023/10/22 17:19:37;;;;;;;;;;;12.30;99.90;;;;;;12610320;28;19977;-36
2023/10/22 17:25:46;;;;;;;;;;;12.10;99.90;;;;;;12598982;28;19981;-37
2023/10/22 17:31:47;;;;;;;;;;;11.90;99.90;;;;;;12604367;28;19928;-36
2023/10/22 17:37:49;;;;;;;;;;;12.20;99.90;;;;;;12608322;28;19932;-37
2023/10/22 17:43:51;;;;;;;;;;;12.20;99.90;;;;;;12614233;28;19932;-37
2023/10/22 17:49:53;;;;;;;;;;;12.40;99.90;;;;;;12616590;28;20638;-36
2023/10/22 17:56:01;;;;;;;;;;;12.30;99.90;;;;;;12618355;28;19976;-37
2023/10/22 18:02:06;;;;;;;;;;;12.30;99.90;;;;;;12593093;28;20403;-37
2023/10/22 18:08:07;;;;;;;;;;;12.30;99.90;;;;;;12603768;28;19938;-37
2023/10/22 18:14:10;;;;;;;;;;;12.40;99.90;;;;;;12614719;28;20490;-36
2023/10/22 18:20:12;;;;;;;;;;;12.30;99.90;;;;;;12615057;28;20051;-37
2023/10/22 18:26:33;;;;;;;;;;;12.20;99.90;;;;;;12609765;28;19975;-36
2023/10/22 18:32:35;;;;;;;;;;;12.10;99.90;;;;;;12617942;28;19924;-36
2023/10/22 18:38:38;;;;;;;;;;;12.10;99.90;;;;;;12611954;28;19928;-36
2023/10/22 18:44:41;;;;;;;;;;;12.10;99.90;;;;;;12609259;28;20016;-36
2023/10/22 18:50:42;;;;;;;;;;;12.10;99.90;;;;;;12613519;28;19932;-37
2023/10/22 18:56:44;;;;;;;;;;;12.00;99.90;;;;;;12617536;28;20429;-36
2023/10/22 19:02:46;;;;;;;;;;;12.00;99.90;;;;;;12589840;28;19928;-36
2023/10/22 19:08:48;;;;;;;;;;;12.00;99.90;;;;;;12612116;28;19928;-37
2023/10/22 19:14:50;;;;;;;;;;;11.90;99.90;;;;;;12590215;28;19942;-37
2023/10/22 19:20:57;;;;;;;;;;;11.90;99.90;;;;;;12532208;28;20456;-37
2023/10/22 19:26:58;;;;;;;;;;;11.90;99.90;;;;;;12539810;28;19976;-36
2023/10/22 19:33:00;;;;;;;;;;;11.90;99.90;;;;;;12553227;28;20311;-37
2023/10/22 19:39:02;;;;;;;;;;;11.90;99.90;;;;;;12553252;28;20269;-36
2023/10/22 19:45:04;;;;;;;;;;;11.90;99.90;;;;;;12544199;28;20480;-37
2023/10/22 19:51:06;;;;;;;;;;;11.90;99.90;;;;;;12549248;28;20015;-36
2023/10/22 19:57:09;;;;;;;;;;;11.90;99.90;;;;;;12548022;28;19981;-37
2023/10/22 20:03:11;;;;;;;;;;;11.90;99.90;;;;;;12540079;28;20042;-36
2023/10/22 20:09:13;;;;;;;;;;;11.80;99.90;;;;;;12549703;28;19936;-36
2023/10/22 20:15:15;;;;;;;;;;;11.90;99.90;;;;;;12565088;28;20552;-36
2023/10/22 20:21:18;;;;;;;;;;;12.00;99.90;;;;;;12588076;28;20007;-37
2023/10/22 20:27:22;;;;;;;;;;;11.90;99.90;;;;;;12617039;28;21501;-37
2023/10/22 20:33:24;;;;;;;;;;;11.90;99.90;;;;;;12621790;28;19935;-37
2023/10/22 20:39:26;;;;;;;;;;;12.00;99.90;;;;;;12606787;28;19996;-37
2023/10/22 20:45:27;;;;;;;;;;;11.90;99.90;;;;;;12619240;28;19934;-37
2023/10/22 20:51:29;;;;;;;;;;;11.90;99.90;;;;;;12576136;28;19928;-37
2023/10/22 20:57:36;;;;;;;;;;;11.80;99.90;;;;;;12605796;28;19974;-36
2023/10/22 21:03:39;;;;;;;;;;;11.90;99.90;;;;;;12589353;28;20007;-37
2023/10/22 21:09:44;;;;;;;;;;;11.90;99.90;;;;;;12586019;28;20025;-36
2023/10/22 21:15:46;;;;;;;;;;;11.90;99.90;;;;;;12611265;28;20285;-36
2023/10/22 21:21:48;;;;;;;;;;;11.80;99.90;;;;;;12612068;28;20431;-37
2023/10/22 21:27:50;;;;;;;;;;;11.80;99.90;;;;;;12599702;28;19981;-37
2023/10/22 21:33:52;;;;;;;;;;;11.80;99.90;;;;;;12615635;28;19928;-37
2023/10/22 21:39:53;;;;;;;;;;;11.70;99.90;;;;;;12619529;28;19936;-37
2023/10/22 21:46:08;;;;;;;;;;;11.80;99.90;;;;;;12614900;28;19936;-37
2023/10/22 21:52:10;;;;;;;;;;;11.80;99.90;;;;;;12625437;28;20388;-36
2023/10/22 21:58:12;;;;;;;;;;;11.80;99.90;;;;;;12607412;28;20342;-38
2023/10/22 22:04:13;;;;;;;;;;;11.80;99.90;;;;;;12621767;28;19928;-37
2023/10/22 22:10:15;;;;;;;;;;;11.80;99.90;;;;;;12621160;28;19935;-37
2023/10/22 22:16:17;;;;;;;;;;;11.80;99.90;;;;;;12618697;28;20027;-36
2023/10/22 22:22:19;;;;;;;;;;;11.70;99.90;;;;;;12574957;28;20063;-37
2023/10/22 22:28:20;;;;;;;;;;;11.70;99.90;;;;;;12619161;28;20012;-37
2023/10/22 22:34:22;;;;;;;;;;;11.70;99.90;;;;;;12612463;28;19927;-37
2023/10/22 22:40:24;;;;;;;;;;;11.70;99.90;;;;;;12622541;28;22006;-37
2023/10/22 22:46:26;;;;;;;;;;;11.70;99.90;;;;;;12614943;28;20526;-37
2023/10/22 22:52:29;;;;;;;;;;;11.60;99.90;;;;;;12614787;28;20437;-37
2023/10/22 22:58:31;;;;;;;;;;;11.60;99.90;;;;;;12620469;28;19947;-37
2023/10/22 23:04:32;;;;;;;;;;;11.60;99.90;;;;;;12602961;28;19950;-37
2023/10/22 23:10:34;;;;;;;;;;;11.60;99.90;;;;;;12611235;28;19930;-37
2023/10/22 23:16:36;;;;;;;;;;;11.70;99.90;;;;;;12619142;28;20022;-37
2023/10/22 23:22:37;;;;;;;;;;;11.70;99.90;;;;;;12581166;28;19929;-37
2023/10/22 23:28:39;;;;;;;;;;;11.80;99.90;;;;;;12602029;28;20292;-37
2023/10/22 23:34:41;;;;;;;;;;;11.80;99.90;;;;;;12585059;28;20015;-37
2023/10/22 23:40:43;;;;;;;;;;;11.80;99.90;;;;;;12616274;28;19928;-37
2023/10/22 23:46:44;;;;;;;;;;;11.70;99.90;;;;;;12612590;28;19929;-37
2023/10/22 23:52:46;;;;;;;;;;;11.80;99.90;;;;;;12620868;28;20371;-37
2023/10/22 23:58:49;;;;;;;;;;;11.80;99.90;;;;;;12609413;28;20423;-37
